createdAt,value
2019-05-14T00:02:03.757Z,12.20
2019-05-14T00:04:32.092Z,12.58
2019-05-14T00:07:05.013Z,14.73
2019-05-14T00:09:57.217Z,14.35
2019-05-14T00:12:32.812Z,8.35
2019-05-14T00:15:06.552Z,9.55
2019-05-14T00:17:41.580Z,10.23
2019-05-14T00:20:13.197Z,12.20
2019-05-14T00:22:41.953Z,12.68
2019-05-14T00:25:18.524Z,11.08
2019-05-14T00:28:03.525Z,12.40
2019-05-14T00:30:32.741Z,12.55
2019-05-14T00:33:01.856Z,16.97
2019-05-14T00:35:32.006Z,13.50
2019-05-14T00:40:31.437Z,12.33
2019-05-14T00:43:02.475Z,13.08
2019-05-14T00:45:31.411Z,13.53
2019-05-14T00:48:01.487Z,15.65
2019-05-14T00:50:31.762Z,15.30
2019-05-14T00:53:01.923Z,18.15
2019-05-14T00:55:31.642Z,17.92
2019-05-14T00:58:02.425Z,17.65
2019-05-14T01:00:31.343Z,17.75
2019-05-14T01:03:02.072Z,21.42
2019-05-14T01:05:32.232Z,21.55
2019-05-14T01:08:01.918Z,17.07
2019-05-14T01:10:31.328Z,19.02
2019-05-14T01:13:01.533Z,29.90
2019-05-14T01:15:32.244Z,22.62
2019-05-14T01:18:02.407Z,24.15
2019-05-14T01:20:31.918Z,24.67
2019-05-14T01:23:02.334Z,25.48
2019-05-14T01:25:31.881Z,27.40
2019-05-14T01:28:03.147Z,31.82
2019-05-14T01:30:32.052Z,27.55
2019-05-14T01:33:04.966Z,25.23
2019-05-14T01:35:33.743Z,23.62
2019-05-14T01:38:02.632Z,25.48
2019-05-14T01:40:31.822Z,24.40
2019-05-14T01:43:03.101Z,24.52
2019-05-14T01:45:32.323Z,23.00
2019-05-14T01:48:05.829Z,24.63
2019-05-14T01:50:34.678Z,27.30
2019-05-14T01:53:03.030Z,29.32
2019-05-14T01:55:32.459Z,27.87
2019-05-14T01:58:02.329Z,31.07
2019-05-14T02:03:01.800Z,26.07
2019-05-14T02:05:31.048Z,28.62
2019-05-14T02:08:01.843Z,30.17
2019-05-14T02:10:31.555Z,24.90
2019-05-14T02:13:01.926Z,27.48
2019-05-14T02:15:39.589Z,26.93
2019-05-14T02:18:02.385Z,26.23
2019-05-14T02:20:32.118Z,27.10
2019-05-14T02:23:01.520Z,25.95
2019-05-14T02:25:32.067Z,23.80
2019-05-14T02:28:01.432Z,27.73
2019-05-14T02:30:45.866Z,24.63
2019-05-14T02:33:00.753Z,29.80
2019-05-14T02:35:29.785Z,29.15
2019-05-14T02:37:59.652Z,29.98
2019-05-14T02:40:29.649Z,27.02
2019-05-14T02:42:59.460Z,25.00
2019-05-14T02:45:30.264Z,27.70
2019-05-14T02:48:00.255Z,26.00
2019-05-14T02:50:32.293Z,29.20
2019-05-14T02:53:00.731Z,31.23
2019-05-14T02:55:30.066Z,30.30
2019-05-14T03:00:30.194Z,24.90
2019-05-14T03:02:59.879Z,26.65
2019-05-14T03:05:29.465Z,29.30
2019-05-14T03:07:59.771Z,26.35
2019-05-14T03:10:30.145Z,32.23
2019-05-14T03:12:59.234Z,25.85
2019-05-14T03:15:29.412Z,29.50
2019-05-14T03:17:59.995Z,28.10
2019-05-14T03:20:28.933Z,25.88
2019-05-14T03:23:04.988Z,30.40
2019-05-14T03:25:30.165Z,25.43
2019-05-14T03:28:00.488Z,30.75
2019-05-14T03:33:03.141Z,27.90
2019-05-14T03:35:42.125Z,26.40
2019-05-14T03:38:02.848Z,38.48
2019-05-14T03:40:33.102Z,35.83
2019-05-14T03:43:01.695Z,32.58
2019-05-14T03:45:31.126Z,37.00
2019-05-14T03:47:59.576Z,33.53
2019-05-14T03:50:29.717Z,31.77
2019-05-14T03:52:59.558Z,30.45
2019-05-14T03:55:29.299Z,27.93
2019-05-14T03:57:59.461Z,26.25
2019-05-14T04:00:50.614Z,27.17
2019-05-14T04:03:39.762Z,39.25
2019-05-14T04:06:14.983Z,36.00
2019-05-14T04:08:44.070Z,37.42
2019-05-14T04:11:13.052Z,25.90
2019-05-14T04:13:41.749Z,35.87
2019-05-14T04:16:16.022Z,29.82
2019-05-14T04:18:45.346Z,33.67
2019-05-14T04:21:14.460Z,30.72
2019-05-14T04:23:51.223Z,34.53
2019-05-14T04:26:21.343Z,36.05
2019-05-14T04:28:51.282Z,33.13
2019-05-14T04:31:20.548Z,33.85
2019-05-14T04:33:51.553Z,31.25
2019-05-14T04:36:32.895Z,25.62
2019-05-14T04:39:01.403Z,29.98
2019-05-14T04:41:30.136Z,32.88
2019-05-14T04:43:59.631Z,32.73
2019-05-14T04:46:40.536Z,31.55
2019-05-14T04:49:09.805Z,29.63
2019-05-14T04:51:40.973Z,36.70
2019-05-14T04:54:09.914Z,32.48
2019-05-14T04:56:39.956Z,33.60
2019-05-14T04:59:10.353Z,29.20
2019-05-14T05:01:41.041Z,31.48
2019-05-14T05:04:09.754Z,33.88
2019-05-14T05:06:39.669Z,31.70
2019-05-14T05:09:09.798Z,30.50
2019-05-14T05:14:10.516Z,31.93
2019-05-14T05:16:39.342Z,30.12
2019-05-14T05:19:10.351Z,24.87
2019-05-14T05:21:39.050Z,31.82
2019-05-14T05:24:09.173Z,33.13
2019-05-14T05:26:41.623Z,34.00
2019-05-14T05:29:10.676Z,37.13
2019-05-14T05:31:39.154Z,39.63
2019-05-14T05:34:09.339Z,41.53
2019-05-14T05:36:41.604Z,44.35
2019-05-14T05:39:11.447Z,47.60
2019-05-14T05:41:40.902Z,55.85
2019-05-14T05:44:10.407Z,52.33
2019-05-14T05:46:43.335Z,46.18
2019-05-14T05:49:11.981Z,53.17
2019-05-14T05:51:42.081Z,52.40
2019-05-14T05:54:10.643Z,53.15
2019-05-14T05:56:39.206Z,48.70
2019-05-14T05:59:09.448Z,49.48
2019-05-14T06:01:46.136Z,48.00
2019-05-14T06:04:11.491Z,49.83
2019-05-14T06:06:43.072Z,48.60
2019-05-14T06:09:11.622Z,53.95
2019-05-14T06:11:41.256Z,51.70
2019-05-14T06:14:13.513Z,51.15
2019-05-14T06:16:44.186Z,50.17
2019-05-14T06:19:34.739Z,51.77
2019-05-14T06:22:10.290Z,44.23
2019-05-14T06:24:53.177Z,43.90
2019-05-14T06:31:09.132Z,45.75
2019-05-14T06:33:43.007Z,38.10
2019-05-14T06:36:19.382Z,42.20
2019-05-14T06:38:59.616Z,34.27
2019-05-14T06:41:42.407Z,36.00
2019-05-14T06:44:20.736Z,32.90
2019-05-14T06:46:58.934Z,31.02
2019-05-14T06:49:45.194Z,29.45
2019-05-14T06:52:38.915Z,30.80
2019-05-14T06:55:32.954Z,35.85
2019-05-14T06:58:03.182Z,43.30
2019-05-14T07:00:39.467Z,37.93
2019-05-14T07:03:25.326Z,38.13
2019-05-14T07:06:00.677Z,31.48
2019-05-14T07:08:49.413Z,36.35
2019-05-14T07:11:43.364Z,31.68
2019-05-14T07:14:18.779Z,36.58
2019-05-14T07:17:04.377Z,35.65
2019-05-14T07:19:39.721Z,35.13
2019-05-14T07:22:22.406Z,32.08
2019-05-14T07:25:09.545Z,31.10
2019-05-14T07:27:39.199Z,29.65
2019-05-14T07:30:19.811Z,34.25
2019-05-14T07:32:58.869Z,31.73
2019-05-14T07:35:42.914Z,32.58
2019-05-14T07:38:35.901Z,32.70
2019-05-14T07:41:28.285Z,30.35
2019-05-14T07:44:15.485Z,28.30
2019-05-14T07:46:58.951Z,30.40
2019-05-14T07:49:33.339Z,27.73
2019-05-14T07:52:09.229Z,17.42
2019-05-14T07:54:48.091Z,16.77
2019-05-14T07:58:14.916Z,13.65
2019-05-14T08:00:50.594Z,11.53
2019-05-14T08:03:32.745Z,11.15
2019-05-14T08:06:14.150Z,9.70
2019-05-14T08:11:58.735Z,11.00
2019-05-14T08:14:42.055Z,9.20
2019-05-14T08:17:08.608Z,6.50
2019-05-14T08:19:58.263Z,10.43
2019-05-14T08:22:44.212Z,7.53
2019-05-14T08:25:39.309Z,7.22
2019-05-14T08:28:14.480Z,6.08
2019-05-14T08:30:58.966Z,9.45
2019-05-14T08:33:31.466Z,9.23
2019-05-14T08:36:30.535Z,9.23
2019-05-14T08:42:25.459Z,10.30
2019-05-14T08:45:13.914Z,6.15
2019-05-14T08:47:48.118Z,7.75
2019-05-14T08:50:28.506Z,5.70
2019-05-14T08:53:09.000Z,5.95
2019-05-14T08:55:42.041Z,9.30
2019-05-14T08:58:21.410Z,9.78
2019-05-14T09:00:52.675Z,9.65
2019-05-14T09:03:35.658Z,9.33
2019-05-14T09:06:11.343Z,8.63
2019-05-14T09:08:49.254Z,9.60
2019-05-14T09:11:26.173Z,12.40
2019-05-14T09:13:59.459Z,13.45
2019-05-14T09:16:41.872Z,13.65
2019-05-14T09:19:19.084Z,12.00
2019-05-14T09:21:51.454Z,15.08
2019-05-14T09:24:33.440Z,13.80
2019-05-14T09:27:19.051Z,11.53
2019-05-14T09:29:58.957Z,11.53
2019-05-14T09:32:42.637Z,14.05
2019-05-14T09:35:38.578Z,12.70
2019-05-14T09:38:15.109Z,10.80
2019-05-14T09:41:06.617Z,14.37
2019-05-14T09:43:25.672Z,12.93
2019-05-14T09:45:59.100Z,16.05
2019-05-14T09:48:49.629Z,14.35
2019-05-14T09:51:24.407Z,18.48
2019-05-14T09:54:02.974Z,14.13
2019-05-14T09:56:33.438Z,13.30
2019-05-14T09:59:20.890Z,11.63
2019-05-14T10:02:05.483Z,11.40
2019-05-14T10:05:21.938Z,16.87
2019-05-14T10:07:34.292Z,15.53
2019-05-14T10:10:20.768Z,14.35
2019-05-14T10:13:21.986Z,11.40
2019-05-14T10:16:09.395Z,12.37
2019-05-14T10:18:52.215Z,13.65
2019-05-14T10:21:35.066Z,9.33
2019-05-14T10:24:20.406Z,14.15
2019-05-14T10:27:08.887Z,9.60
2019-05-14T10:29:49.232Z,15.50
2019-05-14T10:32:35.954Z,11.45
2019-05-14T10:35:15.670Z,16.55
2019-05-14T10:38:18.905Z,12.90
2019-05-14T10:40:44.843Z,17.25
2019-05-14T10:43:58.864Z,13.62
2019-05-14T10:46:33.531Z,13.95
2019-05-14T10:49:23.807Z,15.65
2019-05-14T10:51:58.606Z,15.25
2019-05-14T10:54:34.897Z,9.98
2019-05-14T10:57:13.367Z,8.63
2019-05-14T10:59:54.959Z,10.58
2019-05-14T11:02:30.599Z,13.60
2019-05-14T11:05:05.345Z,11.15
2019-05-14T11:07:42.730Z,14.73
2019-05-14T11:10:19.840Z,13.85
2019-05-14T11:12:55.119Z,16.73
2019-05-14T11:15:30.446Z,18.70
2019-05-14T11:18:09.022Z,18.30
2019-05-14T11:20:42.104Z,14.33
2019-05-14T11:23:18.294Z,14.63
2019-05-14T11:25:48.811Z,13.43
2019-05-14T11:28:19.410Z,17.12
2019-05-14T11:30:49.915Z,11.28
2019-05-14T11:33:26.225Z,13.45
2019-05-14T11:35:58.828Z,11.40
2019-05-14T11:38:37.312Z,10.68
2019-05-14T11:41:03.580Z,11.28
2019-05-14T11:43:35.507Z,10.08
2019-05-14T11:46:05.448Z,12.20
2019-05-14T11:48:39.327Z,15.55
2019-05-14T11:51:12.584Z,15.05
2019-05-14T11:53:44.888Z,12.65
2019-05-14T11:56:14.222Z,16.62
2019-05-14T11:58:45.114Z,19.12
2019-05-14T12:01:18.970Z,14.03
2019-05-14T12:03:55.323Z,20.97
2019-05-14T12:06:27.156Z,12.98
2019-05-14T12:08:58.218Z,15.08
2019-05-14T12:11:29.042Z,19.12
2019-05-14T12:14:00.262Z,15.70
2019-05-14T12:16:29.318Z,20.37
2019-05-14T12:18:59.228Z,12.47
2019-05-14T12:21:29.563Z,12.35
2019-05-14T12:24:04.690Z,16.07
2019-05-14T12:26:31.592Z,18.40
2019-05-14T12:29:05.336Z,17.48
2019-05-14T12:31:35.592Z,19.02
2019-05-14T12:34:09.122Z,19.23
2019-05-14T12:36:45.014Z,15.80
2019-05-14T12:39:14.220Z,13.35
2019-05-14T12:41:48.844Z,15.00
2019-05-14T12:44:19.358Z,16.40
2019-05-14T12:46:48.977Z,22.22
2019-05-14T12:49:19.153Z,18.52
2019-05-14T12:56:53.879Z,16.07
2019-05-14T12:59:22.779Z,21.73
2019-05-14T13:01:51.814Z,12.70
2019-05-14T13:04:20.535Z,13.37
2019-05-14T13:06:59.812Z,20.97
2019-05-14T13:09:29.064Z,15.20
2019-05-14T13:11:59.622Z,13.65
2019-05-14T13:17:00.380Z,12.78
2019-05-14T13:19:30.873Z,17.48
2019-05-14T13:22:13.387Z,18.17
2019-05-14T13:24:32.834Z,17.85
2019-05-14T13:27:02.788Z,19.17
2019-05-14T13:29:32.431Z,17.40
2019-05-14T13:32:01.591Z,24.65
2019-05-14T13:34:30.952Z,19.90
2019-05-14T13:37:00.894Z,19.52
2019-05-14T13:42:05.285Z,16.32
2019-05-14T13:44:34.764Z,18.35
2019-05-14T13:47:04.751Z,14.18
2019-05-14T13:49:34.014Z,18.12
2019-05-14T13:52:03.398Z,15.95
2019-05-14T13:54:45.372Z,12.93
2019-05-14T13:57:19.125Z,16.80
2019-05-14T13:59:59.010Z,19.65
2019-05-14T14:02:31.105Z,23.27
2019-05-14T14:05:00.804Z,24.05
2019-05-14T14:07:33.026Z,22.70
2019-05-14T14:10:03.067Z,32.28
2019-05-14T14:12:39.895Z,29.63
2019-05-14T14:15:12.733Z,25.92
2019-05-14T14:17:49.595Z,48.87
2019-05-14T14:20:19.479Z,28.32
2019-05-14T14:22:49.607Z,30.43
2019-05-14T14:27:48.737Z,28.87
2019-05-14T14:30:19.452Z,23.32
2019-05-14T14:32:51.934Z,33.38
2019-05-14T14:35:24.003Z,30.15
2019-05-14T14:37:59.163Z,37.38
2019-05-14T14:40:31.719Z,34.70
2019-05-14T14:43:01.007Z,26.10
2019-05-14T14:48:01.270Z,33.88
2019-05-14T14:50:33.225Z,32.63
2019-05-14T14:53:04.365Z,33.23
2019-05-14T14:55:40.178Z,31.75
2019-05-14T14:58:11.410Z,37.10
2019-05-14T15:00:41.938Z,35.63
2019-05-14T15:03:12.991Z,39.05
2019-05-14T15:05:41.992Z,37.33
2019-05-14T15:08:11.589Z,34.90
2019-05-14T15:10:48.386Z,37.08
2019-05-14T15:13:29.529Z,30.40
2019-05-14T15:16:03.570Z,32.63
2019-05-14T15:18:38.618Z,34.08
2019-05-14T15:21:09.770Z,39.27
2019-05-14T15:23:43.129Z,39.38
2019-05-14T15:26:14.379Z,43.70
2019-05-14T15:28:45.021Z,46.85
2019-05-14T15:31:14.627Z,39.05
2019-05-14T15:33:44.104Z,39.10
2019-05-14T15:36:14.518Z,38.20
2019-05-14T15:38:48.617Z,46.37
2019-05-14T15:41:20.157Z,39.75
2019-05-14T15:43:49.136Z,37.13
2019-05-14T15:48:48.659Z,43.08
2019-05-14T15:51:19.481Z,38.63
2019-05-14T15:54:06.381Z,45.80
2019-05-14T15:56:19.856Z,36.13
2019-05-14T15:58:53.076Z,36.30
2019-05-14T16:01:23.146Z,38.90
2019-05-14T16:03:51.839Z,37.70
2019-05-14T16:06:22.839Z,42.70
2019-05-14T16:08:51.940Z,37.53
2019-05-14T16:11:20.642Z,42.88
2019-05-14T16:13:54.181Z,44.45
2019-05-14T16:16:24.156Z,44.10
2019-05-14T16:21:21.861Z,42.23
2019-05-14T16:23:52.837Z,42.40
2019-05-14T16:26:25.460Z,43.30
2019-05-14T16:28:54.691Z,41.55
2019-05-14T16:31:23.177Z,46.65
2019-05-14T16:33:51.594Z,36.10
2019-05-14T16:36:20.125Z,34.55
2019-05-14T16:38:48.869Z,37.20
2019-05-14T16:41:18.459Z,39.80
2019-05-14T16:43:49.297Z,42.48
2019-05-14T16:46:18.225Z,45.00
2019-05-14T16:48:48.894Z,50.12
2019-05-14T16:51:19.296Z,46.05
2019-05-14T16:53:48.783Z,50.55
2019-05-14T16:56:19.122Z,44.20
2019-05-14T16:58:48.925Z,38.55
2019-05-14T17:01:19.447Z,47.35
2019-05-14T17:03:49.642Z,44.98
2019-05-14T17:06:18.724Z,46.90
2019-05-14T17:08:49.306Z,49.45
2019-05-14T17:11:18.397Z,74.87
2019-05-14T17:13:49.317Z,53.15
2019-05-14T17:16:19.660Z,169.50
2019-05-14T17:18:49.127Z,58.00
2019-05-14T17:21:18.374Z,57.40
2019-05-14T17:23:49.061Z,108.32
2019-05-14T17:26:18.236Z,136.35
2019-05-14T17:28:48.941Z,66.77
2019-05-14T17:31:19.042Z,97.00
2019-05-14T17:33:49.197Z,85.72
2019-05-14T17:36:18.882Z,76.55
2019-05-14T17:38:49.276Z,103.17
2019-05-14T17:41:19.502Z,123.40
2019-05-14T17:43:52.669Z,177.55
2019-05-14T17:46:25.641Z,97.88
2019-05-14T17:48:54.660Z,62.43
2019-05-14T17:51:24.533Z,58.10
2019-05-14T17:56:22.974Z,59.13
2019-05-14T17:58:52.764Z,54.23
2019-05-14T18:01:21.742Z,60.88
2019-05-14T18:03:50.613Z,57.78
2019-05-14T18:06:19.244Z,58.42
2019-05-14T18:08:48.111Z,58.08
2019-05-14T18:11:18.964Z,62.30
2019-05-14T18:13:48.518Z,62.00
2019-05-14T18:16:19.188Z,54.65
2019-05-14T18:18:49.355Z,61.92
2019-05-14T18:21:18.078Z,65.42
2019-05-14T18:23:49.086Z,71.87
2019-05-14T18:26:18.874Z,75.52
2019-05-14T18:28:48.649Z,74.15
2019-05-14T18:31:20.596Z,79.92
2019-05-14T18:33:49.537Z,73.60
2019-05-14T18:36:19.189Z,66.28
2019-05-14T18:41:18.864Z,64.75
2019-05-14T18:43:48.820Z,60.12
2019-05-14T18:46:19.161Z,61.48
2019-05-14T18:48:48.749Z,61.63
2019-05-14T18:51:19.669Z,64.10
2019-05-14T18:53:50.806Z,73.42
2019-05-14T18:56:23.928Z,66.90
2019-05-14T18:58:49.681Z,62.98
2019-05-14T19:01:19.586Z,67.60
2019-05-14T19:03:51.420Z,79.80
2019-05-14T19:06:19.932Z,75.40
2019-05-14T19:08:48.519Z,68.78
2019-05-14T19:11:17.438Z,57.62
2019-05-14T19:13:48.273Z,60.00
2019-05-14T19:16:16.363Z,59.15
2019-05-14T19:18:44.854Z,56.13
2019-05-14T19:21:13.746Z,70.17
2019-05-14T19:23:45.138Z,66.28
2019-05-14T19:26:12.275Z,67.42
2019-05-14T19:28:41.534Z,71.02
2019-05-14T19:31:12.307Z,60.80
2019-05-14T19:33:41.661Z,69.97
2019-05-14T19:36:10.071Z,62.60
2019-05-14T19:38:39.112Z,60.00
2019-05-14T19:41:08.758Z,64.00
2019-05-14T19:43:37.410Z,61.77
2019-05-14T19:46:05.905Z,56.45
2019-05-14T19:48:34.370Z,72.85
2019-05-14T19:51:02.938Z,67.95
2019-05-14T19:53:32.136Z,58.30
2019-05-14T19:56:00.637Z,57.38
2019-05-14T19:58:29.523Z,62.45
2019-05-14T20:00:58.837Z,53.92
2019-05-14T20:03:29.129Z,50.30
2019-05-14T20:05:57.753Z,49.25
2019-05-14T20:08:29.376Z,47.33
2019-05-14T20:11:01.207Z,51.58
2019-05-14T20:13:29.941Z,42.38
2019-05-14T20:15:59.030Z,52.53
2019-05-14T20:18:28.884Z,44.77
2019-05-14T20:20:59.267Z,44.88
2019-05-14T20:23:29.571Z,47.48
2019-05-14T20:25:58.765Z,51.92
2019-05-14T20:28:29.631Z,56.43
2019-05-14T20:30:58.802Z,56.50
2019-05-14T20:33:29.974Z,51.73
2019-05-14T20:35:59.033Z,59.90
2019-05-14T20:38:28.422Z,69.15
2019-05-14T20:40:58.144Z,68.17
2019-05-14T20:43:33.820Z,61.35
2019-05-14T20:46:02.533Z,69.80
2019-05-14T20:48:30.926Z,47.73
2019-05-14T20:50:59.425Z,54.80
2019-05-14T20:53:29.145Z,58.90
2019-05-14T20:58:28.234Z,50.67
2019-05-14T21:00:57.040Z,53.00
2019-05-14T21:03:25.770Z,50.03
2019-05-14T21:05:54.313Z,43.80
2019-05-14T21:08:22.725Z,43.50
2019-05-14T21:10:52.919Z,45.58
2019-05-14T21:13:21.401Z,47.88
2019-05-14T21:15:51.242Z,44.05
2019-05-14T21:18:34.195Z,50.63
2019-05-14T21:20:51.060Z,51.08
2019-05-14T21:23:22.841Z,45.60
2019-05-14T21:25:51.554Z,54.98
2019-05-14T21:28:22.483Z,50.63
2019-05-14T21:30:51.167Z,51.83
2019-05-14T21:33:24.789Z,49.15
2019-05-14T21:35:53.210Z,57.20
2019-05-14T21:38:23.370Z,59.20
2019-05-14T21:40:51.647Z,63.25
2019-05-14T21:43:22.382Z,63.75
2019-05-14T21:45:58.501Z,64.77
2019-05-14T21:48:29.937Z,66.77
2019-05-14T21:51:04.232Z,68.33
2019-05-14T21:53:40.855Z,58.70
2019-05-14T21:56:10.832Z,67.82
2019-05-14T21:58:40.098Z,65.95
2019-05-14T22:01:14.381Z,56.95
2019-05-14T22:03:48.557Z,54.73
2019-05-14T22:06:21.187Z,56.85
2019-05-14T22:08:50.413Z,59.13
2019-05-14T22:11:21.762Z,61.23
2019-05-14T22:13:58.161Z,67.37
2019-05-14T22:16:29.579Z,63.75
2019-05-14T22:19:02.248Z,61.58
2019-05-14T22:21:33.745Z,65.15
2019-05-14T22:24:04.316Z,61.48
2019-05-14T22:26:33.943Z,62.10
2019-05-14T22:29:02.747Z,62.48
2019-05-14T22:31:31.805Z,69.40
2019-05-14T22:34:00.642Z,56.67
2019-05-14T22:36:29.480Z,60.25
2019-05-14T22:38:58.253Z,57.38
2019-05-14T22:41:29.131Z,59.50
2019-05-14T22:43:59.938Z,63.10
2019-05-14T22:46:29.071Z,61.00
2019-05-14T22:49:00.398Z,67.17
2019-05-14T22:51:28.823Z,56.33
2019-05-14T22:53:58.966Z,59.85
2019-05-14T22:56:28.085Z,57.70
2019-05-14T22:58:58.332Z,56.58
2019-05-14T23:01:28.886Z,59.55
2019-05-14T23:03:59.576Z,56.02
2019-05-14T23:06:28.149Z,49.77
2019-05-14T23:08:58.124Z,52.95
2019-05-14T23:11:31.151Z,47.40
2019-05-14T23:14:00.630Z,56.48
2019-05-14T23:16:37.543Z,53.73
2019-05-14T23:19:01.258Z,48.65
2019-05-14T23:21:31.245Z,50.25
2019-05-14T23:26:34.129Z,52.00
2019-05-14T23:29:06.170Z,50.25
2019-05-14T23:31:38.775Z,50.58
2019-05-14T23:34:10.241Z,51.68
2019-05-14T23:36:45.071Z,53.52
2019-05-14T23:39:22.722Z,51.50
2019-05-14T23:41:58.337Z,50.28
2019-05-14T23:44:33.112Z,52.20
2019-05-14T23:47:08.171Z,55.90
2019-05-14T23:49:39.638Z,55.92
2019-05-14T23:52:11.905Z,47.05
2019-05-14T23:54:42.361Z,42.95
2019-05-14T23:57:13.416Z,52.73
2019-05-14T23:59:45.716Z,43.10
